Time;durP1;ratioP1;P1;durP2;ratioP2;P2;SDS_P1;SDS_P2;PMS_P1;PMS_P2;Temp;Humidity;BMP_temperature;BMP_pressure;BME280_temperature;BME280_humidity;BME280_pressure;Samples;Min_cycle;Max_cycle;Signal;HPM_P1;HPM_P2
2023/09/06 00:00:29;;;;;;;3.35;2.10;;;;;;;20.47;76.30;101892.97;5056551;27;96739;-27
2023/09/06 00:02:58;;;;;;;4.20;2.22;;;;;;;20.40;76.58;101892.63;5055801;27;97891;-30
2023/09/06 00:05:24;;;;;;;3.30;2.13;;;;;;;20.42;76.70;101896.09;5037846;27;98869;-27
2023/09/06 00:07:50;;;;;;;3.70;2.15;;;;;;;20.34;77.03;101891.28;5037985;27;96636;-27
2023/09/06 00:10:15;;;;;;;4.35;2.40;;;;;;;20.36;76.18;101899.41;5056566;27;96738;-27
2023/09/06 00:12:41;;;;;;;3.92;2.08;;;;;;;20.32;76.88;101896.03;5055845;27;99262;-27
2023/09/06 00:15:10;;;;;;;4.75;2.42;;;;;;;20.29;76.71;101893.56;5037632;27;101111;-27
2023/09/06 00:17:37;;;;;;;4.40;2.58;;;;;;;20.28;76.67;101891.78;5037857;27;96707;-27
2023/09/06 00:20:16;;;;;;;4.90;2.55;;;;;;;20.27;76.62;101895.56;5056385;27;96775;-27
2023/09/06 00:22:41;;;;;;;4.25;2.40;;;;;;;20.21;76.99;101898.84;5055273;27;99463;-27
2023/09/06 00:25:08;;;;;;;4.53;2.45;;;;;;;20.20;76.68;101897.09;5055866;27;97254;-27
2023/09/06 00:27:33;;;;;;;4.30;2.33;;;;;;;20.14;76.96;101893.00;5037348;27;96547;-26
2023/09/06 00:29:58;;;;;;;3.65;2.22;;;;;;;20.14;76.95;101895.75;5056263;27;96742;-27
2023/09/06 00:32:24;;;;;;;5.07;2.10;;;;;;;20.06;77.31;101886.41;5055555;27;99357;-26
2023/09/06 00:34:49;;;;;;;4.57;2.28;;;;;;;20.08;77.90;101893.50;5055809;27;97295;-27
2023/09/06 00:37:14;;;;;;;4.00;2.20;;;;;;;20.04;77.17;101897.53;5055910;27;96423;-26
2023/09/06 00:39:40;;;;;;;3.45;2.20;;;;;;;19.99;77.36;101894.28;5055798;27;96833;-26
2023/09/06 00:42:05;;;;;;;6.82;2.08;;;;;;;19.96;77.60;101894.56;5055103;27;97841;-27
2023/09/06 00:44:30;;;;;;;3.75;2.38;;;;;;;19.91;77.92;101885.84;5055987;27;97731;-27
2023/09/06 00:46:56;;;;;;;5.38;2.42;;;;;;;19.89;78.30;101901.59;5055552;27;96641;-27
2023/09/06 00:49:21;;;;;;;4.05;2.13;;;;;;;19.91;77.70;101894.09;5055663;27;96857;-27
2023/09/06 00:51:47;;;;;;;3.67;2.35;;;;;;;19.83;78.36;101894.75;5054935;27;96648;-27
2023/09/06 00:54:12;;;;;;;3.80;1.98;;;;;;;19.80;78.45;101888.59;5055485;27;97266;-27
2023/09/06 00:56:39;;;;;;;3.33;2.13;;;;;;;19.79;78.21;101892.38;5055518;27;96555;-28
2023/09/06 00:59:05;;;;;;;4.35;2.10;;;;;;;19.76;78.23;101893.50;5037400;27;96805;-27
2023/09/06 01:01:33;;;;;;;3.20;2.25;;;;;;;19.73;78.37;101893.75;5055452;27;97959;-27
2023/09/06 01:03:59;;;;;;;7.15;2.20;;;;;;;19.67;78.37;101897.84;5036711;27;101011;-27
2023/09/06 01:06:28;;;;;;;4.07;2.13;;;;;;;19.68;78.39;101899.63;5055696;27;96368;-27
2023/09/06 01:08:58;;;;;;;6.72;2.08;;;;;;;19.61;78.71;101894.75;5055655;27;96772;-27
2023/09/06 01:11:26;;;;;;;3.55;2.20;;;;;;;19.60;78.63;101898.50;5036747;27;99500;-26
2023/09/06 01:13:53;;;;;;;3.35;2.08;;;;;;;19.60;78.38;101898.50;5036702;27;101534;-27
2023/09/06 01:16:29;;;;;;;4.07;2.38;;;;;;;19.60;78.85;101907.63;5036691;27;96573;-27
2023/09/06 01:18:55;;;;;;;4.40;2.40;;;;;;;19.53;78.58;101900.88;5037068;27;96752;-27
2023/09/06 01:21:25;;;;;;;5.38;2.20;;;;;;;19.52;78.29;101899.13;5054744;27;98153;-27
2023/09/06 01:23:51;;;;;;;3.28;1.83;;;;;;;19.47;79.01;101895.88;5036703;27;100969;-27
2023/09/06 01:26:18;;;;;;;3.97;2.17;;;;;;;19.48;79.27;101909.50;5055443;27;96506;-28
2023/09/06 01:28:44;;;;;;;3.72;2.35;;;;;;;19.42;79.43;101893.50;5055257;27;96780;-27
2023/09/06 01:31:09;;;;;;;4.72;2.25;;;;;;;19.41;78.61;101901.91;5036380;27;101583;-27
2023/09/06 01:33:35;;;;;;;3.55;2.10;;;;;;;19.38;79.06;101903.03;5054940;27;99217;-27
2023/09/06 01:36:00;;;;;;;3.72;2.08;;;;;;;19.39;79.27;101902.00;5054905;27;96466;-27
2023/09/06 01:38:26;;;;;;;3.83;1.85;;;;;;;19.36;79.87;101906.91;5055253;27;96746;-27
2023/09/06 01:40:52;;;;;;;2.92;2.05;;;;;;;19.35;79.93;101910.63;5054057;27;99313;-27
2023/09/06 01:43:18;;;;;;;4.85;1.90;;;;;;;19.35;79.78;101911.50;5035978;27;100530;-27
2023/09/06 01:45:45;;;;;;;3.20;1.88;;;;;;;19.30;79.10;101919.25;5036547;27;96811;-28
2023/09/06 01:48:11;;;;;;;3.67;1.98;;;;;;;19.26;80.06;101906.78;5036683;27;96865;-27
2023/09/06 01:50:37;;;;;;;4.40;2.08;;;;;;;19.23;79.39;101907.88;5036306;27;100541;-27
2023/09/06 01:53:02;;;;;;;3.15;2.00;;;;;;;19.22;80.08;101905.28;5054661;27;97966;-27
2023/09/06 01:55:28;;;;;;;3.50;1.98;;;;;;;19.21;80.14;101903.50;5054895;27;96472;-27
2023/09/06 01:57:53;;;;;;;4.40;2.17;;;;;;;19.20;80.51;101907.28;5055336;27;96525;-27
2023/09/06 02:00:28;;;;;;;4.43;2.20;;;;;;;19.24;79.97;101914.28;5054674;27;97408;-27
2023/09/06 02:02:54;;;;;;;3.72;2.20;;;;;;;19.25;79.40;101910.50;5036264;27;101111;-28
2023/09/06 02:05:20;;;;;;;4.05;2.05;;;;;;;19.19;80.10;101906.41;5036124;27;96573;-27
2023/09/06 02:07:46;;;;;;;3.65;1.88;;;;;;;19.23;80.09;101912.50;5054940;27;96809;-27
2023/09/06 02:10:12;;;;;;;4.30;2.05;;;;;;;19.16;80.30;101903.88;5036155;27;100856;-27
2023/09/06 02:12:38;;;;;;;4.82;2.00;;;;;;;19.18;79.95;101912.88;5054377;27;97808;-28
2023/09/06 02:15:07;;;;;;;3.80;2.15;;;;;;;19.14;79.75;101902.25;5054279;27;96681;-27
2023/09/06 02:17:34;;;;;;;4.35;2.25;;;;;;;19.07;80.14;101894.53;5036437;27;96863;-27
2023/09/06 02:20:17;;;;;;;4.40;2.28;;;;;;;19.14;79.65;101905.00;5035961;27;100875;-28
2023/09/06 02:22:43;;;;;;;3.08;1.88;;;;;;;19.13;80.35;101917.00;5036054;27;100787;-26
2023/09/06 02:25:09;;;;;;;3.50;2.25;;;;;;;19.13;80.11;101917.00;5036227;27;96685;-32
2023/09/06 02:27:36;;;;;;;2.83;1.90;;;;;;;19.14;79.89;101921.47;5036339;27;96892;-28
2023/09/06 02:30:06;;;;;;;3.45;1.98;;;;;;;19.03;80.63;101909.50;5035367;27;101139;-27
2023/09/06 02:32:35;;;;;;;3.92;2.10;;;;;;;19.10;80.49;101924.50;5035758;27;100908;-27
2023/09/06 02:35:01;;;;;;;5.18;2.13;;;;;;;19.02;80.59;101916.00;5036012;27;96675;-27
2023/09/06 02:37:27;;;;;;;3.35;2.17;;;;;;;19.02;80.51;101916.00;5036005;27;96932;-27
2023/09/06 02:39:52;;;;;;;4.57;1.90;;;;;;;18.97;81.10;101915.47;5054107;27;98021;-27
2023/09/06 02:42:19;;;;;;;5.45;2.20;;;;;;;18.96;80.40;101905.50;5052866;27;99562;-28
2023/09/06 02:44:44;;;;;;;2.28;1.65;;;;;;;18.92;80.64;101911.34;5037964;27;96546;-27
2023/09/06 02:47:11;;;;;;;2.72;2.05;;;;;;;18.97;80.36;101918.22;5058468;27;96767;-27
2023/09/06 02:49:41;;;;;;;3.53;1.95;;;;;;;18.89;80.35;101910.59;5057379;27;98037;-27
2023/09/06 02:52:12;;;;;;;3.25;2.15;;;;;;;18.98;80.35;101930.97;5039006;27;100953;-27
2023/09/06 02:54:42;;;;;;;3.40;1.88;;;;;;;18.97;80.61;101920.09;5038419;27;96699;-29
2023/09/06 02:57:10;;;;;;;2.80;1.92;;;;;;;18.93;80.74;101926.84;5039115;27;96648;-28
2023/09/06 02:59:35;;;;;;;4.43;2.10;;;;;;;18.93;81.28;101924.97;5038817;27;101202;-27
2023/09/06 03:02:05;;;;;;;4.13;1.88;;;;;;;18.92;81.69;101927.84;5057050;27;99224;-27
2023/09/06 03:04:33;;;;;;;5.57;2.22;;;;;;;18.91;80.92;101926.97;5039070;27;96595;-27
2023/09/06 03:07:01;;;;;;;6.55;2.17;;;;;;;18.88;81.52;101924.47;5038987;27;96877;-28
2023/09/06 03:09:28;;;;;;;4.43;2.03;;;;;;;18.86;81.83;101919.09;5056874;27;99428;-26
2023/09/06 03:11:54;;;;;;;3.47;1.88;;;;;;;18.83;81.32;101918.44;5039215;27;99851;-27
2023/09/06 03:14:21;;;;;;;3.75;1.90;;;;;;;18.81;81.48;101928.69;5057432;27;96545;-27
2023/09/06 03:16:53;;;;;;;5.90;2.58;;;;;;;18.84;81.49;101925.72;5057155;27;96830;-28
2023/09/06 03:19:18;;;;;;;3.47;1.85;;;;;;;18.81;81.94;101926.81;5056411;27;99210;-28
2023/09/06 03:21:44;;;;;;;2.90;1.80;;;;;;;18.81;81.17;101929.56;5056717;27;97764;-27
2023/09/06 03:24:12;;;;;;;6.68;2.30;;;;;;;18.78;81.62;101924.34;5057295;27;96611;-27
2023/09/06 03:26:43;;;;;;;3.03;1.98;;;;;;;18.80;81.87;101935.16;5057133;27;96843;-28
2023/09/06 03:29:10;;;;;;;5.40;2.05;;;;;;;18.80;81.64;101933.28;5038415;27;101045;-27
2023/09/06 03:31:42;;;;;;;3.95;2.28;;;;;;;18.76;81.63;101930.88;5038287;27;100722;-26
2023/09/06 03:34:13;;;;;;;4.47;2.33;;;;;;;18.77;82.08;101933.53;5038475;27;96717;-27
2023/09/06 03:36:40;;;;;;;3.97;2.38;;;;;;;18.72;82.36;101934.88;5057718;27;96726;-27
2023/09/06 03:39:06;;;;;;;4.03;2.22;;;;;;;18.68;82.06;101932.34;5038850;27;97767;-27
2023/09/06 03:41:32;;;;;;;3.15;1.92;;;;;;;18.73;81.68;101953.97;5038073;27;101146;-26
2023/09/06 03:43:58;;;;;;;4.93;1.98;;;;;;;18.70;82.42;101947.84;5038024;27;96614;-27
2023/09/06 03:46:25;;;;;;;5.05;2.25;;;;;;;18.73;82.00;101953.97;5056694;27;96786;-26
2023/09/06 03:48:50;;;;;;;5.88;2.60;;;;;;;18.72;82.22;101952.22;5056282;27;99852;-27
2023/09/06 03:51:17;;;;;;;4.28;2.35;;;;;;;18.68;81.94;101947.97;5056516;27;97821;-28
2023/09/06 03:53:43;;;;;;;5.43;2.50;;;;;;;18.66;82.28;101948.09;5038214;27;96719;-27
2023/09/06 03:56:10;;;;;;;3.55;1.98;;;;;;;18.64;82.88;101941.84;5037141;27;96774;-27
2023/09/06 03:58:36;;;;;;;3.40;2.20;;;;;;;18.69;82.57;101955.22;5056317;27;98096;-27
2023/09/06 04:01:01;;;;;;;5.13;1.90;;;;;;;18.71;82.13;101957.81;5056362;27;99453;-27
2023/09/06 04:03:26;;;;;;;5.30;2.13;;;;;;;18.67;81.67;101949.84;5056616;27;96571;-27
2023/09/06 04:05:52;;;;;;;6.32;2.33;;;;;;;18.67;82.10;101952.56;5056629;27;96654;-27
2023/09/06 04:08:17;;;;;;;4.38;2.20;;;;;;;18.72;81.41;101951.34;5055871;27;98103;-27
2023/09/06 04:10:44;;;;;;;6.22;2.30;;;;;;;18.68;82.14;101946.06;5055860;27;99258;-26
2023/09/06 04:13:11;;;;;;;2.67;1.80;;;;;;;18.69;82.07;101946.97;5038018;27;96566;-27
2023/09/06 04:15:37;;;;;;;3.38;2.00;;;;;;;18.68;82.00;101945.22;5056383;27;96852;-27
2023/09/06 04:18:05;;;;;;;3.95;2.63;;;;;;;18.69;82.08;101946.97;5037544;27;100835;-26
2023/09/06 04:20:36;;;;;;;4.07;2.20;;;;;;;18.73;82.06;101955.84;5037622;27;101694;-28
2023/09/06 04:23:07;;;;;;;3.80;1.90;;;;;;;18.72;82.44;101956.84;5055916;27;96754;-27
2023/09/06 04:25:41;;;;;;;2.78;1.70;;;;;;;18.68;82.39;101948.81;5038348;27;96625;-28
2023/09/06 04:28:10;;;;;;;2.67;1.75;;;;;;;18.69;82.60;101957.97;5037488;27;101167;-27
2023/09/06 04:30:37;;;;;;;3.58;2.13;;;;;;;18.71;82.56;101955.06;5055591;27;98588;-27
2023/09/06 04:33:04;;;;;;;2.92;1.80;;;;;;;18.69;82.32;101957.97;5037217;27;96720;-27
2023/09/06 04:35:34;;;;;;;4.68;2.38;;;;;;;18.71;81.61;101949.59;5055854;27;96910;-27
2023/09/06 04:38:02;;;;;;;3.53;2.33;;;;;;;18.73;81.88;101955.84;5037344;27;100905;-26
2023/09/06 04:40:28;;;;;;;4.10;2.38;;;;;;;18.68;82.64;101943.34;5036928;27;100782;-28
2023/09/06 04:42:54;;;;;;;2.83;1.80;;;;;;;18.67;82.42;101947.09;5055022;27;96834;-27
2023/09/06 04:45:19;;;;;;;3.85;2.20;;;;;;;18.68;83.63;101954.31;5056252;27;96766;-27
2023/09/06 04:47:45;;;;;;;3.63;2.05;;;;;;;18.68;82.78;101958.94;5055595;27;97930;-26
2023/09/06 04:50:13;;;;;;;2.85;1.90;;;;;;;18.62;82.58;101957.56;5037606;27;101146;-27
2023/09/06 04:52:47;;;;;;;3.13;1.83;;;;;;;18.61;83.35;101961.28;5037316;27;96617;-27
2023/09/06 04:55:14;;;;;;;7.07;2.38;;;;;;;18.60;82.40;101953.19;5037256;27;96830;-27
2023/09/06 04:57:40;;;;;;;3.42;2.05;;;;;;;18.62;83.18;101953.94;5036418;27;101068;-27
2023/09/06 05:02:45;;;;;;;5.85;2.38;;;;;;;18.60;83.22;101965.03;5054374;27;96739;-27
2023/09/06 05:05:12;;;;;;;2.88;1.80;;;;;;;18.59;82.97;101957.81;5055642;27;96774;-27
2023/09/06 05:07:37;;;;;;;3.28;2.03;;;;;;;18.64;82.99;101974.78;5036590;27;100883;-27
2023/09/06 05:10:03;;;;;;;4.53;2.38;;;;;;;18.64;82.73;101977.53;5055176;27;97750;-27
2023/09/06 05:12:29;;;;;;;3.15;2.17;;;;;;;18.66;82.95;101981.03;5037046;27;96608;-27
2023/09/06 05:14:55;;;;;;;4.78;2.42;;;;;;;18.61;83.05;101972.25;5055765;27;96865;-27
2023/09/06 05:17:20;;;;;;;5.15;2.42;;;;;;;18.62;83.26;101971.28;5036802;27;101407;-29
2023/09/06 05:19:51;;;;;;;4.85;2.38;;;;;;;18.61;83.47;101975.00;5055202;27;97456;-27
2023/09/06 05:22:16;;;;;;;5.55;2.28;;;;;;;18.63;83.07;101975.75;5036437;27;97193;-27
2023/09/06 05:24:41;;;;;;;4.75;2.42;;;;;;;18.62;82.71;101982.25;5055310;27;96773;-27
2023/09/06 05:27:07;;;;;;;4.05;2.58;;;;;;;18.62;82.64;101975.91;5055014;27;102204;-27
2023/09/06 05:29:32;;;;;;;5.97;2.53;;;;;;;18.66;83.33;101986.53;5054863;27;99427;-27
2023/09/06 05:31:58;;;;;;;5.60;2.47;;;;;;;18.62;83.12;101975.91;5055150;27;96627;-27
2023/09/06 05:34:24;;;;;;;4.78;2.65;;;;;;;18.65;82.53;101984.75;5055209;27;96817;-27
2023/09/06 05:36:49;;;;;;;3.78;2.38;;;;;;;18.62;82.95;101985.00;5054648;27;99337;-27
2023/09/06 05:39:15;;;;;;;4.28;2.28;;;;;;;18.65;83.17;101984.75;5055001;27;97898;-27
2023/09/06 05:41:40;;;;;;;5.03;2.70;;;;;;;18.67;82.70;101991.00;5054767;27;96733;-28
2023/09/06 05:44:07;;;;;;;4.93;2.75;;;;;;;18.66;82.74;101986.53;5036852;27;96681;-27
2023/09/06 05:46:33;;;;;;;6.97;2.60;;;;;;;18.66;82.85;101982.88;5054212;27;98043;-27
2023/09/06 05:48:58;;;;;;;5.72;2.50;;;;;;;18.73;82.40;101999.75;5054686;27;97319;-27
2023/09/06 05:51:23;;;;;;;3.58;2.03;;;;;;;18.76;82.24;102002.25;5054913;27;96686;-27
2023/09/06 05:53:49;;;;;;;6.70;2.55;;;;;;;18.79;82.03;101999.31;5054620;27;96824;-28
2023/09/06 05:56:14;;;;;;;4.57;2.80;;;;;;;18.80;82.00;101992.81;5054628;27;97439;-26
2023/09/06 05:58:40;;;;;;;5.32;2.45;;;;;;;18.82;82.10;101988.97;5053453;27;99171;-27
2023/09/06 06:01:06;;;;;;;4.82;2.38;;;;;;;18.90;82.05;101993.84;5054881;27;96557;-27
2023/09/06 06:03:32;;;;;;;4.30;2.60;;;;;;;18.95;82.55;101998.97;5055179;27;96779;-27
2023/09/06 06:05:58;;;;;;;5.35;2.53;;;;;;;18.95;82.04;101997.13;5036125;27;101087;-27
2023/09/06 06:08:23;;;;;;;6.38;3.10;;;;;;;18.98;82.04;101998.75;5054452;27;97756;-26
2023/09/06 06:10:48;;;;;;;5.22;2.78;;;;;;;19.04;82.00;101996.41;5054122;27;96767;-27
2023/09/06 06:13:14;;;;;;;5.13;2.72;;;;;;;19.09;81.69;101996.91;5053376;27;98949;-27
2023/09/06 06:15:39;;;;;;;5.32;3.08;;;;;;;19.13;81.90;101991.16;5051739;27;99237;-30
2023/09/06 06:18:07;;;;;;;6.75;3.22;;;;;;;19.20;81.90;102006.16;5052059;27;97110;-28
2023/09/06 06:20:33;;;;;;;5.03;2.75;;;;;;;19.25;81.43;102003.91;5055698;27;96698;-28
2023/09/06 06:22:58;;;;;;;7.65;3.25;;;;;;;19.33;81.42;101995.94;5055674;27;97066;-31
2023/09/06 06:25:24;;;;;;;7.97;2.85;;;;;;;19.42;81.56;101994.31;5055439;27;98826;-33
2023/09/06 06:27:51;;;;;;;6.00;3.17;;;;;;;19.51;80.98;102008.19;5056403;27;102008;-27
2023/09/06 06:30:18;;;;;;;6.40;3.45;;;;;;;19.64;81.01;102012.69;5039592;27;96640;-27
2023/09/06 06:32:44;;;;;;;7.38;2.92;;;;;;;19.77;80.89;102020.84;5039647;27;96818;-26
2023/09/06 06:35:11;;;;;;;6.80;3.03;;;;;;;19.85;80.24;102024.69;5038773;27;100877;-27
2023/09/06 06:37:38;;;;;;;5.15;2.80;;;;;;;20.00;80.82;102030.84;5039287;27;101076;-27
2023/09/06 06:40:05;;;;;;;6.10;3.25;;;;;;;20.14;80.21;102018.66;5039557;27;96527;-27
2023/09/06 06:42:32;;;;;;;10.63;3.53;;;;;;;20.27;80.32;102019.38;5039012;27;96895;-27
2023/09/06 06:44:57;;;;;;;5.97;3.17;;;;;;;20.42;79.70;102010.84;5039115;27;100977;-27
2023/09/06 06:47:23;;;;;;;7.50;3.70;;;;;;;20.57;79.10;102015.97;5057387;27;99406;-27
2023/09/06 06:49:52;;;;;;;7.80;3.10;;;;;;;20.79;78.84;102020.50;5057811;27;96514;-27
2023/09/06 06:52:17;;;;;;;6.28;3.10;;;;;;;20.98;78.57;102019.75;5039650;27;96789;-27
2023/09/06 06:54:42;;;;;;;6.47;2.95;;;;;;;21.19;77.48;102030.78;5057321;27;97312;-27
2023/09/06 06:57:08;;;;;;;7.28;3.10;;;;;;;21.37;76.94;102022.75;5057251;27;99512;-27
2023/09/06 06:59:34;;;;;;;6.20;3.15;;;;;;;21.59;76.81;102024.50;5057045;27;96503;-29
2023/09/06 07:02:00;;;;;;;6.85;3.08;;;;;;;21.76;75.72;102031.28;5039158;27;96766;-27
2023/09/06 07:04:25;;;;;;;5.20;2.90;;;;;;;21.93;75.58;102032.50;5056863;27;99290;-27
2023/09/06 07:06:51;;;;;;;7.80;3.45;;;;;;;22.13;74.71;102022.41;5057342;27;97315;-27
2023/09/06 07:09:16;;;;;;;4.40;2.88;;;;;;;22.33;74.22;102030.75;5057602;27;96458;-27
2023/09/06 07:11:41;;;;;;;6.45;2.65;;;;;;;22.47;74.55;102033.97;5057787;27;96953;-27
2023/09/06 07:14:07;;;;;;;3.42;2.35;;;;;;;22.65;73.85;102041.56;5056688;27;99364;-27
2023/09/06 07:16:33;;;;;;;5.95;2.17;;;;;;;22.76;72.93;102035.88;5057481;27;98243;-27
2023/09/06 07:18:59;;;;;;;5.00;2.85;;;;;;;22.97;72.71;102034.84;5057201;27;96644;-27
2023/09/06 07:21:25;;;;;;;7.50;3.08;;;;;;;23.08;72.01;102037.50;5057296;27;96775;-27
2023/09/06 07:23:50;;;;;;;4.57;2.92;;;;;;;23.25;72.08;102039.50;5037996;27;101232;-27
2023/09/06 07:26:16;;;;;;;5.28;3.05;;;;;;;23.32;71.29;102029.59;5056926;27;97290;-28
2023/09/06 07:28:46;;;;;;;5.32;3.05;;;;;;;23.49;71.53;102043.69;5056980;27;96484;-27
2023/09/06 07:31:12;;;;;;;3.85;2.63;;;;;;;23.62;71.53;102037.81;5038614;27;96885;-27
2023/09/06 07:33:41;;;;;;;5.25;3.17;;;;;;;23.74;70.48;102033.88;5038107;27;101359;-27
2023/09/06 07:36:07;;;;;;;5.70;2.80;;;;;;;23.93;70.44;102050.41;5038310;27;100676;-27
2023/09/06 07:38:33;;;;;;;6.60;3.33;;;;;;;24.01;69.85;102044.09;5038723;27;96614;-27
2023/09/06 07:41:07;;;;;;;4.78;2.65;;;;;;;24.08;69.41;102039.69;5038663;27;96915;-26
2023/09/06 07:43:35;;;;;;;5.22;3.35;;;;;;;24.30;68.99;102046.69;5056491;27;98059;-27
2023/09/06 07:46:02;;;;;;;5.05;2.80;;;;;;;24.40;68.90;102040.22;5056760;27;97318;-29
2023/09/06 07:48:29;;;;;;;6.05;3.00;;;;;;;24.49;68.46;102031.88;5037675;27;96765;-27
2023/09/06 07:50:56;;;;;;;6.10;2.80;;;;;;;24.73;67.67;102053.41;5038412;27;96940;-27
2023/09/06 07:53:23;;;;;;;6.07;2.60;;;;;;;24.79;67.42;102044.47;5037943;27;101554;-27
2023/09/06 07:55:49;;;;;;;7.03;2.78;;;;;;;24.95;67.31;102046.50;5037968;27;101272;-28
2023/09/06 07:58:15;;;;;;;7.22;2.53;;;;;;;25.07;67.19;102037.94;5056616;27;96498;-27
2023/09/06 08:00:41;;;;;;;5.10;2.80;;;;;;;25.24;66.66;102050.94;5056369;27;96804;-26
2023/09/06 08:03:06;;;;;;;4.65;2.60;;;;;;;25.31;65.88;102052.03;5037841;27;100941;-27
2023/09/06 08:05:32;;;;;;;5.47;3.00;;;;;;;25.35;65.85;102055.38;5056650;27;97845;-27
2023/09/06 08:07:58;;;;;;;6.10;2.63;;;;;;;25.50;65.20;102050.09;5056665;27;96547;-27
2023/09/06 08:10:24;;;;;;;6.50;2.85;;;;;;;25.63;65.27;102058.88;5056695;27;96782;-27
2023/09/06 08:12:50;;;;;;;6.00;2.78;;;;;;;25.78;64.63;102057.19;5037158;27;101331;-27
2023/09/06 08:15:15;;;;;;;11.10;3.90;;;;;;;25.81;64.28;102051.34;5055775;27;99217;-27
2023/09/06 08:17:41;;;;;;;5.57;3.30;;;;;;;25.92;64.18;102055.75;5056134;27;96518;-27
2023/09/06 08:20:09;;;;;;;8.20;3.05;;;;;;;26.00;64.54;102063.25;5056331;27;96942;-27
2023/09/06 08:22:35;;;;;;;7.97;3.25;;;;;;;26.12;63.79;102056.34;5055944;27;97408;-26
2023/09/06 08:25:05;;;;;;;6.72;3.25;;;;;;;26.18;63.77;102052.06;5037565;27;100687;-27
2023/09/06 08:27:30;;;;;;;14.27;3.20;;;;;;;26.32;63.44;102058.88;5037853;27;96667;-27
2023/09/06 08:29:55;;;;;;;6.50;3.08;;;;;;;26.39;63.07;102048.84;5056437;27;96895;-27
2023/09/06 08:32:21;;;;;;;6.28;2.75;;;;;;;26.56;62.11;102058.97;5055626;27;99384;-28
2023/09/06 08:34:46;;;;;;;4.30;2.67;;;;;;;26.65;61.65;102059.88;5055744;27;97663;-27
2023/09/06 08:37:11;;;;;;;3.95;2.15;;;;;;;26.71;62.14;102056.38;5055656;27;96521;-28
2023/09/06 08:39:37;;;;;;;5.22;2.58;;;;;;;26.77;61.25;102057.59;5056147;27;96849;-27
2023/09/06 08:42:04;;;;;;;4.88;2.50;;;;;;;26.84;60.69;102056.78;5054248;27;97886;-27
2023/09/06 08:44:32;;;;;;;4.85;2.38;;;;;;;26.92;61.12;102069.81;5055419;27;99149;-27
2023/09/06 08:47:01;;;;;;;3.15;2.03;;;;;;;27.00;59.92;102067.00;5037414;27;96620;-27
2023/09/06 08:49:27;;;;;;;4.03;2.10;;;;;;;27.11;59.74;102063.91;5036827;27;96874;-27
2023/09/06 08:51:55;;;;;;;3.58;1.98;;;;;;;27.15;59.54;102066.31;5036294;27;101076;-27
2023/09/06 08:54:23;;;;;;;5.10;2.17;;;;;;;27.27;59.62;102067.75;5055883;27;97306;-27
2023/09/06 08:56:50;;;;;;;3.35;2.03;;;;;;;27.35;59.44;102064.09;5036200;27;96863;-26
2023/09/06 08:59:17;;;;;;;4.82;2.13;;;;;;;27.50;58.86;102070.69;5055081;27;96823;-31
2023/09/06 09:01:43;;;;;;;4.53;2.10;;;;;;;27.65;59.52;102066.16;5034838;27;99106;-27
2023/09/06 09:04:09;;;;;;;3.92;1.73;;;;;;;27.79;58.96;102069.22;5052607;27;99347;-27
2023/09/06 09:06:34;;;;;;;3.25;2.10;;;;;;;27.87;58.58;102067.31;5037109;27;96603;-28
2023/09/06 09:09:19;;;;;;;4.35;1.92;;;;;;;27.82;57.57;102069.75;5055006;27;96827;-26
2023/09/06 09:11:51;;;;;;;4.28;2.25;;;;;;;27.94;58.19;102068.34;5049129;27;100892;-27
2023/09/06 09:14:26;;;;;;;4.18;2.05;;;;;;;27.90;56.93;102066.97;5050277;27;100760;-28
2023/09/06 09:16:56;;;;;;;4.70;2.10;;;;;;;27.93;58.13;102062.94;5048734;27;96742;-27
2023/09/06 09:19:22;;;;;;;6.32;2.58;;;;;;;28.01;57.87;102062.03;5036399;27;97113;-28
2023/09/06 09:21:50;;;;;;;5.03;2.30;;;;;;;28.13;58.11;102057.84;5032990;27;100666;-29
2023/09/06 09:24:26;;;;;;;3.42;2.22;;;;;;;28.30;56.89;102058.63;5033964;27;101036;-32
2023/09/06 09:26:52;;;;;;;4.07;2.38;;;;;;;28.49;58.06;102055.41;5052626;27;97035;-30
2023/09/06 09:29:18;;;;;;;5.80;2.45;;;;;;;28.59;57.30;102061.59;5053040;27;97195;-32
2023/09/06 09:31:44;;;;;;;6.30;2.40;;;;;;;28.67;57.49;102052.31;5052673;27;97437;-28
2023/09/06 09:34:12;;;;;;;3.95;2.50;;;;;;;28.68;56.79;102051.28;5052144;27;97845;-29
2023/09/06 09:36:38;;;;;;;5.35;2.50;;;;;;;28.75;55.74;102055.06;5054883;27;96612;-27
2023/09/06 09:39:07;;;;;;;4.53;2.30;;;;;;;28.84;55.65;102052.19;5055092;27;96772;-27
2023/09/06 09:41:34;;;;;;;9.85;2.50;;;;;;;28.99;56.50;102064.31;5036111;27;100951;-28
2023/09/06 09:44:15;;;;;;;4.57;2.55;;;;;;;29.07;55.81;102055.88;5036574;27;100804;-27
2023/09/06 09:46:45;;;;;;;4.32;2.35;;;;;;;29.17;56.09;102064.84;5036534;27;96765;-27
2023/09/06 09:49:12;;;;;;;5.55;2.80;;;;;;;29.30;55.76;102050.28;5035259;27;96946;-27
2023/09/06 09:51:39;;;;;;;4.05;2.30;;;;;;;29.45;55.29;102052.22;5054291;27;97544;-27
2023/09/06 09:54:05;;;;;;;5.95;2.40;;;;;;;29.54;53.98;102054.75;5037172;27;100490;-27
2023/09/06 09:56:32;;;;;;;5.68;2.97;;;;;;;29.64;54.90;102054.47;5040301;27;96727;-27
2023/09/06 09:59:00;;;;;;;4.68;2.33;;;;;;;29.72;54.85;102048.81;5040187;27;96865;-27
2023/09/06 10:01:28;;;;;;;5.97;2.47;;;;;;;29.64;54.44;102058.13;5039706;27;101263;-27
2023/09/06 10:03:58;;;;;;;3.80;2.30;;;;;;;29.67;54.19;102047.66;5039792;27;101322;-28
2023/09/06 10:06:26;;;;;;;4.68;2.10;;;;;;;29.76;53.38;102057.69;5039918;27;96524;-28
2023/09/06 10:08:57;;;;;;;3.20;1.88;;;;;;;29.92;54.15;102048.25;5040470;27;96893;-27
2023/09/06 10:11:24;;;;;;;4.15;2.08;;;;;;;30.06;52.76;102052.97;5058337;27;97609;-27
2023/09/06 10:13:51;;;;;;;2.60;1.70;;;;;;;30.13;52.17;102055.81;5039453;27;99019;-27
2023/09/06 10:16:18;;;;;;;3.88;2.15;;;;;;;30.31;53.29;102055.47;5057315;27;97204;-28
2023/09/06 10:18:44;;;;;;;3.08;1.83;;;;;;;30.38;51.76;102057.28;5039853;27;96946;-27
2023/09/06 10:21:11;;;;;;;4.93;1.77;;;;;;;30.35;50.73;102057.66;5058076;27;98004;-28
2023/09/06 10:23:41;;;;;;;2.60;1.65;;;;;;;30.43;50.45;102060.34;5039210;27;101149;-28
2023/09/06 10:26:07;;;;;;;2.92;1.67;;;;;;;30.52;51.09;102051.84;5039887;27;96506;-27
2023/09/06 10:28:33;;;;;;;4.50;1.92;;;;;;;30.72;51.21;102058.50;5058329;27;96766;-27
2023/09/06 10:31:07;;;;;;;4.13;1.67;;;;;;;30.56;50.83;102054.06;5057859;27;98117;-29
2023/09/06 10:33:35;;;;;;;3.40;1.50;;;;;;;30.66;50.44;102049.00;5039507;27;101328;-27
2023/09/06 10:36:08;;;;;;;2.55;1.60;;;;;;;30.74;46.54;102049.94;5058036;27;96745;-27
2023/09/06 10:38:58;;;;;;;2.25;1.40;;;;;;;30.93;48.81;102052.09;5039560;27;96875;-27
2023/09/06 10:41:27;;;;;;;4.22;1.80;;;;;;;31.00;50.55;102046.56;5037927;27;101139;-28
2023/09/06 10:43:58;;;;;;;2.50;1.83;;;;;;;31.10;48.27;102041.50;5039010;27;100908;-27
2023/09/06 10:46:26;;;;;;;4.72;1.95;;;;;;;30.90;48.60;102039.38;5057611;27;97091;-27
2023/09/06 10:49:22;;;;;;;4.38;2.20;;;;;;;31.07;48.39;102048.34;5057769;27;96724;-27
2023/09/06 10:52:04;;;;;;;6.07;2.28;;;;;;;31.04;49.98;102040.38;5039063;27;101183;-27
2023/09/06 10:54:38;;;;;;;4.43;2.25;;;;;;;31.10;49.59;102055.47;5057210;27;97017;-27
2023/09/06 10:57:05;;;;;;;5.18;2.38;;;;;;;31.15;50.09;102044.53;5057853;27;96539;-27
2023/09/06 10:59:32;;;;;;;5.05;2.45;;;;;;;31.26;49.88;102044.00;5039673;27;96812;-27
2023/09/06 11:02:15;;;;;;;4.20;2.63;;;;;;;31.36;48.81;102037.19;5057241;27;97415;-27
2023/09/06 11:04:40;;;;;;;3.45;2.03;;;;;;;31.60;49.60;102042.34;5056682;27;97358;-27
2023/09/06 11:07:09;;;;;;;6.25;2.85;;;;;;;31.51;48.48;102046.38;5057062;27;96665;-28
2023/09/06 11:09:50;;;;;;;4.47;2.25;;;;;;;31.47;48.99;102040.31;5039052;27;96942;-27
2023/09/06 11:12:16;;;;;;;4.93;2.30;;;;;;;31.48;48.50;102036.44;5057182;27;98005;-27
2023/09/06 11:14:43;;;;;;;3.78;2.20;;;;;;;31.41;48.41;102038.31;5038522;27;100806;-27
2023/09/06 11:17:19;;;;;;;2.97;2.13;;;;;;;31.52;48.16;102045.31;5038912;27;96602;-28
2023/09/06 11:19:45;;;;;;;5.22;2.40;;;;;;;31.62;48.85;102031.81;5057521;27;96573;-28
2023/09/06 11:22:11;;;;;;;3.38;2.20;;;;;;;31.42;47.42;102039.22;5056588;27;99355;-27
2023/09/06 11:24:37;;;;;;;5.80;2.42;;;;;;;31.48;48.28;102032.78;5057042;27;99439;-27
2023/09/06 11:27:20;;;;;;;5.10;2.28;;;;;;;31.39;46.94;102033.97;5038674;27;96813;-27